Terminal Aerodrome Forecast
Issued by NWS Dallas/Fort Worth, TX

Home | Current Version | Previous Version | Text Only | Print | Product List | Glossary On
Versions: 1 2 3 4 5 6 7 8 9 10 11 12 13 14 15 16 17 18 19 20 21 22 23 24 25 26 27
000
FTUS44 KFWD 291100
TAFDFW
TAF
KDFW 291135Z 2912/3018 13007KT P6SM SCT250
     FM300100 09004KT P6SM FEW250
     FM300800 05008KT 3SM BR BKN008
     FM301100 03012KT P6SM BKN013=

USA.gov is the U.S. government's official web portal to all federal, state and local government web resources and services.